METAR AND TAF INFORMATION
METAR FOR LECO
ADDS - METARS form results

(0027 UTC 11 August 2020)
Data provider http://aviationweather.gov/metar/data/
 
METAR text: LECO 110000Z AUTO 01004KT 330V060 9999 BKN011 OVC027 19/18 Q1013
Conditions at: LECO (LA CORUNA/ALVEDR, ES) observed 0000 UTC 11 August 2020
Temperature: 19.0°C (66°F)
Dewpoint: 18.0°C (64°F) [RH = 94%]
Pressure (altimeter): 29.91 inches Hg (1013.0 mb)
Winds: from the N (10 degrees) at 5 MPH (4 knots; 2.1 m/s)
Visibility: 6 or more miles (10+ km)
Ceiling: 1100 feet AGL
Clouds: broken clouds at 1100 feet AGL
overcast cloud deck at 2700 feet AGL
Weather: no significant weather observed at this time

METAR text: LECO 102330Z AUTO 01004KT 320V060 9999 BKN013 OVC030 19/18 Q1014
Conditions at: LECO (LA CORUNA/ALVEDR, ES) observed 2330 UTC 10 August 2020
Temperature: 19.0°C (66°F)
Dewpoint: 18.0°C (64°F) [RH = 94%]
Pressure (altimeter): 29.94 inches Hg (1014.0 mb)
Winds: from the N (10 degrees) at 5 MPH (4 knots; 2.1 m/s)
Visibility: 6 or more miles (10+ km)
Ceiling: 1300 feet AGL
Clouds: broken clouds at 1300 feet AGL
overcast cloud deck at 3000 feet AGL
Weather: no significant weather observed at this time

Forecast for: LECO (LA CORUNA/ALVEDR, ES)
Text: TAF LECO 102000Z 1021/1121 01009KT 9999 BKN015 TX24/1113Z TN18/1104Z
Forecast period: 2100 UTC 10 August 2020 to 2100 UTC 11 August 2020
Forecast type: FROM: standard forecast or significant change
Winds: from the N (10 degrees) at 10 MPH (9 knots; 4.6 m/s)
Visibility: 6 or more miles (10+ km)
Ceiling: 1500 feet AGL
Clouds: broken clouds at 1500 feet AGL
Weather: no significant weather forecast for this period
Text: PROB30
Forecast period: 2100 UTC 10 August 2020 to 1100 UTC 11 August 2020
Forecast type: TEMPORARY: The following changes expected for less than half the time period
Visibility: 1.86 miles (2.99 km)
Ceiling: 500 feet AGL
Clouds: broken clouds at 500 feet AGL
broken clouds at 1000 feet AGL
Weather: BR  (mist)
Text: TEMPO 1021/1111 3000 BR BKN005 BKN010
Forecast period: 1700 to 2100 UTC 11 August 2020
Forecast type: TEMPORARY: The following changes expected for less than half the time period
Visibility: 1.86 miles (2.99 km)
Ceiling: 500 feet AGL
Clouds: broken clouds at 500 feet AGL
broken clouds at 1000 feet AGL
Weather: BR  (mist)

 AIRPORT MAP

 RUNWAY INFORMATION
Runway 03 Runway length 6358 ft Runway width 148 ft
Runway elevation 327 ft Runway displaced threshold 0 ft Runway heading 31
Runway 21 Runway length 6358 ft Runway width 148 ft
Runway elevation 286 ft Runway displaced threshold 0 ft Runway heading 211

 AIRPORT FREQUENCIES
Type APP Name SANTIAGO A Frequency 120.2 MHZ
Type GND Name GND Frequency 121.7 MHZ
Type TWR Name A Coruña T Frequency 118.3 MHZ

 AIRPORT NEAR NAVIGATION AIDS
Type NDB Name La Coruna Frequency 401 KHZ
Type VOR-DME Name La Coruna Frequency 115100 KHZ



Powered by Virtual Airlines Manager [v2.6.2]